Ayrshire, Indiana
Current Conditions -  °F | °C
As of 1:55 PM on Thursday 27 Nov 2014 (Local Time) from KHNB Reporting Station
Overcast Overcast  
Wind Chill: 18°   Ceiling: 2100
Heat Index: 28°   Visibility: 8mi
Dew Point: 19°   Wind: 13mph
Humidity: 69%   Direction: 310°NW
Pressure: 30.42"   Gusts: NA
Location:  38.3488°N, 87.2217°W
Report Text: KHNB 271955Z AUTO 31011KT 8SM OVC021 M02/M07 A3042 RMK AO1
Loading
Personal Weather Stations






























Interactive Weather Map New forecast layout! Learn more

10-Day Weather Forecast

Advertisements
Track Severe Weather on mobile